createdAt,value
2018-04-19T00:01:58.507Z,17.87
2018-04-19T00:04:01.152Z,18.33
2018-04-19T00:06:04.627Z,23.17
2018-04-19T00:08:07.252Z,22.00
2018-04-19T00:10:09.953Z,19.37
2018-04-19T00:12:12.585Z,19.60
2018-04-19T00:14:16.741Z,20.03
2018-04-19T00:16:20.465Z,21.47
2018-04-19T00:18:23.069Z,19.93
2018-04-19T00:20:26.420Z,21.60
2018-04-19T00:22:29.128Z,19.60
2018-04-19T00:24:31.724Z,18.00
2018-04-19T00:26:35.090Z,18.23
2018-04-19T00:28:37.713Z,20.03
2018-04-19T00:30:41.090Z,16.90
2018-04-19T00:32:43.705Z,17.60
2018-04-19T00:34:46.309Z,20.23
2018-04-19T00:36:48.970Z,19.37
2018-04-19T00:38:51.569Z,17.97
2018-04-19T00:40:54.925Z,16.80
2018-04-19T00:42:57.544Z,18.57
2018-04-19T00:45:00.161Z,16.87
2018-04-19T00:47:02.931Z,17.57
2018-04-19T00:49:05.573Z,17.17
2018-04-19T00:51:08.927Z,18.10
2018-04-19T00:53:11.549Z,18.07
2018-04-19T00:55:14.920Z,17.43
2018-04-19T00:57:18.319Z,17.77
2018-04-19T00:59:21.736Z,16.27
2018-04-19T01:01:24.338Z,17.47
2018-04-19T01:03:26.961Z,16.83
2018-04-19T01:05:29.559Z,16.10
2018-04-19T01:07:32.256Z,18.97
2018-04-19T01:09:34.848Z,18.07
2018-04-19T01:11:37.477Z,17.70
2018-04-19T01:13:40.173Z,18.00
2018-04-19T01:17:51.754Z,21.70
2018-04-19T01:19:54.371Z,17.10
2018-04-19T01:21:56.966Z,17.77
2018-04-19T01:24:00.504Z,17.87
2018-04-19T01:26:03.093Z,18.80
2018-04-19T01:28:05.702Z,18.67
2018-04-19T01:30:08.356Z,15.57
2018-04-19T01:32:11.820Z,19.33
2018-04-19T01:34:14.424Z,19.63
2018-04-19T01:36:25.684Z,19.10
2018-04-19T01:38:28.289Z,17.13
2018-04-19T01:40:30.874Z,18.03
2018-04-19T01:42:33.586Z,18.23
2018-04-19T01:44:36.957Z,18.90
2018-04-19T01:46:40.329Z,18.03
2018-04-19T01:48:42.985Z,16.97
2018-04-19T01:50:45.584Z,16.33
2018-04-19T01:52:48.198Z,18.83
2018-04-19T01:54:50.912Z,21.20
2018-04-19T01:56:53.532Z,18.83
2018-04-19T01:58:56.909Z,20.10
2018-04-19T02:00:59.515Z,19.10
2018-04-19T02:03:02.129Z,18.93
2018-04-19T02:05:04.721Z,18.47
2018-04-19T02:07:07.324Z,15.27
2018-04-19T02:09:10.693Z,19.10
2018-04-19T02:11:13.292Z,17.00
2018-04-19T02:13:17.591Z,19.73
2018-04-19T02:15:20.181Z,20.87
2018-04-19T02:17:23.559Z,19.07
2018-04-19T02:19:26.177Z,17.50
2018-04-19T02:21:28.760Z,24.60
2018-04-19T02:23:31.525Z,20.63
2018-04-19T02:25:34.224Z,21.17
2018-04-19T02:27:36.855Z,19.97
2018-04-19T02:29:40.235Z,17.97
2018-04-19T02:31:42.832Z,18.30
2018-04-19T02:33:45.456Z,19.20
2018-04-19T02:35:48.146Z,21.60
2018-04-19T02:37:51.461Z,18.23
2018-04-19T02:39:55.093Z,16.63
2018-04-19T02:41:57.669Z,19.70
2018-04-19T02:44:01.271Z,21.53
2018-04-19T02:46:04.753Z,22.13
2018-04-19T02:48:07.391Z,18.13
2018-04-19T02:50:09.992Z,20.60
2018-04-19T02:52:12.579Z,21.67
2018-04-19T02:54:15.204Z,20.33
2018-04-19T02:56:17.792Z,20.20
2018-04-19T02:58:21.256Z,18.33
2018-04-19T03:00:23.858Z,18.17
2018-04-19T03:02:26.453Z,17.93
2018-04-19T03:04:29.101Z,18.00
2018-04-19T03:06:31.687Z,19.87
2018-04-19T03:08:35.103Z,21.57
2018-04-19T03:10:37.703Z,22.43
2018-04-19T03:12:40.317Z,16.53
2018-04-19T03:14:42.919Z,20.03
2018-04-19T03:16:45.524Z,21.17
2018-04-19T03:18:48.136Z,19.37
2018-04-19T03:20:50.733Z,19.87
2018-04-19T03:22:54.743Z,23.13
2018-04-19T03:24:58.904Z,18.87
2018-04-19T03:27:01.516Z,18.33
2018-04-19T03:29:04.967Z,18.43
2018-04-19T03:31:08.275Z,22.30
2018-04-19T03:33:10.892Z,20.10
2018-04-19T03:35:13.510Z,20.13
2018-04-19T03:37:16.106Z,21.00
2018-04-19T03:39:18.722Z,22.43
2018-04-19T03:41:21.308Z,21.37
2018-04-19T03:43:23.907Z,20.77
2018-04-19T03:45:26.512Z,23.33
2018-04-19T03:47:29.104Z,21.17
2018-04-19T03:49:32.471Z,20.97
2018-04-19T03:51:35.064Z,28.90
2018-04-19T03:53:38.422Z,20.00
2018-04-19T03:55:41.039Z,19.27
2018-04-19T03:57:44.472Z,18.57
2018-04-19T03:59:47.085Z,24.67
2018-04-19T04:01:49.668Z,22.43
2018-04-19T04:03:53.069Z,22.90
2018-04-19T04:05:55.672Z,21.13
2018-04-19T04:07:58.272Z,24.93
2018-04-19T04:10:02.089Z,21.23
2018-04-19T04:12:04.679Z,21.23
2018-04-19T04:14:07.289Z,20.97
2018-04-19T04:16:09.984Z,21.43
2018-04-19T04:18:24.406Z,21.77
2018-04-19T04:20:39.968Z,21.10
2018-04-19T04:22:54.418Z,21.27
2018-04-19T04:24:57.043Z,20.57
2018-04-19T04:26:59.677Z,20.83
2018-04-19T04:29:03.350Z,20.33
2018-04-19T04:31:06.001Z,25.73
2018-04-19T04:33:08.588Z,30.50
2018-04-19T04:35:11.210Z,27.53
2018-04-19T04:37:14.570Z,26.37
2018-04-19T04:39:17.174Z,24.03
2018-04-19T04:41:20.560Z,25.70
2018-04-19T04:43:23.915Z,25.10
2018-04-19T04:45:26.530Z,21.70
2018-04-19T04:47:29.250Z,23.37
2018-04-19T04:49:31.860Z,32.07
2018-04-19T04:51:34.475Z,24.73
2018-04-19T04:53:37.061Z,24.33
2018-04-19T04:55:39.667Z,26.40
2018-04-19T04:57:42.275Z,22.10
2018-04-19T04:59:45.664Z,25.27
2018-04-19T05:01:49.024Z,25.33
2018-04-19T05:03:51.617Z,24.97
2018-04-19T05:05:54.221Z,28.07
2018-04-19T05:07:56.811Z,22.47
2018-04-19T05:09:59.424Z,27.00
2018-04-19T05:12:02.472Z,28.17
2018-04-19T05:14:05.096Z,26.33
2018-04-19T05:16:07.699Z,26.73
2018-04-19T05:18:10.285Z,28.57
2018-04-19T05:20:12.885Z,31.77
2018-04-19T05:22:15.479Z,28.23
2018-04-19T05:24:18.066Z,26.77
2018-04-19T05:26:20.674Z,24.73
2018-04-19T05:28:23.263Z,28.60
2018-04-19T05:30:25.868Z,28.00
2018-04-19T05:32:28.489Z,33.30
2018-04-19T05:34:31.917Z,32.97
2018-04-19T05:36:34.623Z,30.20
2018-04-19T05:38:37.225Z,32.13
2018-04-19T05:40:40.600Z,35.73
2018-04-19T05:42:43.209Z,34.80
2018-04-19T05:44:45.817Z,29.57
2018-04-19T05:46:48.443Z,33.73
2018-04-19T05:48:51.830Z,35.33
2018-04-19T05:50:55.237Z,33.47
2018-04-19T05:52:58.605Z,32.03
2018-04-19T05:55:01.950Z,36.47
2018-04-19T05:57:04.556Z,33.17
2018-04-19T05:59:07.161Z,32.60
2018-04-19T06:01:10.531Z,33.13
2018-04-19T06:03:13.127Z,35.30
2018-04-19T06:05:15.711Z,31.30
2018-04-19T06:07:18.328Z,34.73
2018-04-19T06:09:21.043Z,27.40
2018-04-19T06:11:23.667Z,28.77
2018-04-19T06:13:26.262Z,28.73
2018-04-19T06:15:28.904Z,34.23
2018-04-19T06:17:31.600Z,32.53
2018-04-19T06:19:34.191Z,33.53
2018-04-19T06:21:36.804Z,31.73
2018-04-19T06:23:40.165Z,30.27
2018-04-19T06:25:42.779Z,31.43
2018-04-19T06:27:46.000Z,30.47
2018-04-19T06:29:48.628Z,29.17
2018-04-19T06:31:52.005Z,25.30
2018-04-19T06:33:54.612Z,30.03
2018-04-19T06:35:57.273Z,28.23
2018-04-19T06:37:59.893Z,30.10
2018-04-19T06:40:02.519Z,25.83
2018-04-19T06:42:06.703Z,25.37
2018-04-19T06:44:09.294Z,25.73
2018-04-19T06:46:12.682Z,25.50
2018-04-19T06:48:15.272Z,25.13
2018-04-19T06:50:18.647Z,23.43
2018-04-19T06:52:22.140Z,25.30
2018-04-19T06:54:24.742Z,25.63
2018-04-19T06:56:27.368Z,32.53
2018-04-19T06:58:29.960Z,29.40
2018-04-19T07:00:32.603Z,24.90
2018-04-19T07:02:35.211Z,23.97
2018-04-19T07:04:37.810Z,26.40
2018-04-19T07:06:41.188Z,24.57
2018-04-19T07:08:43.804Z,26.20
2018-04-19T07:10:46.452Z,26.43
2018-04-19T07:12:49.825Z,25.27
2018-04-19T07:14:52.418Z,23.90
2018-04-19T07:16:55.796Z,26.00
2018-04-19T07:18:58.372Z,24.73
2018-04-19T07:21:00.966Z,28.40
2018-04-19T07:23:04.340Z,24.40
2018-04-19T07:25:07.699Z,23.30
2018-04-19T07:27:11.077Z,24.40
2018-04-19T07:29:13.669Z,21.67
2018-04-19T07:31:16.367Z,24.67
2018-04-19T07:33:18.971Z,22.87
2018-04-19T07:35:22.346Z,22.47
2018-04-19T07:37:25.736Z,28.40
2018-04-19T07:39:28.327Z,25.00
2018-04-19T07:41:31.705Z,23.50
2018-04-19T07:43:35.089Z,22.40
2018-04-19T07:45:37.705Z,25.33
2018-04-19T07:47:40.318Z,27.17
2018-04-19T07:49:42.911Z,24.37
2018-04-19T07:51:45.553Z,23.27
2018-04-19T07:53:48.144Z,23.93
2018-04-19T07:55:50.796Z,22.73
2018-04-19T07:57:53.440Z,22.23
2018-04-19T07:59:56.776Z,27.30
2018-04-19T08:01:59.390Z,19.57
2018-04-19T08:04:02.972Z,23.30
2018-04-19T08:06:05.594Z,20.43
2018-04-19T08:08:08.206Z,23.77
2018-04-19T08:10:10.788Z,22.13
2018-04-19T08:12:13.436Z,23.93
2018-04-19T08:14:16.045Z,21.97
2018-04-19T08:16:18.668Z,25.80
2018-04-19T08:18:21.275Z,22.67
2018-04-19T08:20:23.872Z,24.40
2018-04-19T08:22:26.528Z,24.83
2018-04-19T08:24:29.130Z,23.70
2018-04-19T08:26:32.641Z,23.13
2018-04-19T08:28:36.076Z,22.93
2018-04-19T08:30:38.676Z,22.43
2018-04-19T08:32:41.289Z,25.37
2018-04-19T08:34:43.900Z,23.60
2018-04-19T08:36:46.491Z,23.53
2018-04-19T08:38:49.118Z,22.50
2018-04-19T08:40:51.709Z,30.23
2018-04-19T08:42:54.330Z,21.30
2018-04-19T08:44:56.927Z,22.07
2018-04-19T08:47:00.281Z,22.87
2018-04-19T08:49:02.892Z,22.93
2018-04-19T08:51:06.252Z,24.07
2018-04-19T08:53:09.748Z,30.23
2018-04-19T08:55:12.339Z,25.43
2018-04-19T08:57:15.715Z,24.27
2018-04-19T08:59:18.404Z,29.73
2018-04-19T09:01:21.005Z,26.20
2018-04-19T09:03:23.616Z,22.07
2018-04-19T09:05:26.259Z,22.73
2018-04-19T09:07:28.871Z,21.77
2018-04-19T09:09:31.455Z,23.50
2018-04-19T09:11:34.056Z,20.37
2018-04-19T09:13:36.706Z,23.30
2018-04-19T09:15:39.298Z,20.40
2018-04-19T09:17:41.916Z,23.23
2018-04-19T09:19:44.522Z,22.20
2018-04-19T09:21:47.126Z,21.60
2018-04-19T09:23:50.601Z,22.37
2018-04-19T09:25:53.183Z,17.80
2018-04-19T09:27:55.787Z,22.50
2018-04-19T09:29:59.117Z,19.37
2018-04-19T09:32:01.717Z,21.90
2018-04-19T09:34:04.348Z,20.80
2018-04-19T09:36:07.000Z,22.73
2018-04-19T09:38:10.383Z,23.00
2018-04-19T09:40:13.743Z,18.17
2018-04-19T09:42:16.340Z,21.03
2018-04-19T09:44:18.941Z,19.00
2018-04-19T09:46:21.537Z,18.77
2018-04-19T09:48:24.157Z,19.87
2018-04-19T09:50:26.772Z,22.33
2018-04-19T09:52:29.378Z,18.83
2018-04-19T09:54:32.000Z,18.63
2018-04-19T09:56:35.351Z,22.20
2018-04-19T09:58:38.029Z,19.30
2018-04-19T10:00:45.423Z,19.97
2018-04-19T10:02:48.010Z,18.40
2018-04-19T10:04:50.635Z,21.07
2018-04-19T10:06:53.249Z,27.37
2018-04-19T10:08:55.880Z,22.07
2018-04-19T10:10:58.480Z,20.80
2018-04-19T10:13:01.920Z,17.27
2018-04-19T10:15:05.331Z,19.53
2018-04-19T10:17:07.943Z,24.60
2018-04-19T10:19:10.563Z,21.87
2018-04-19T10:21:13.939Z,20.83
2018-04-19T10:23:17.304Z,16.97
2018-04-19T10:25:19.940Z,16.50
2018-04-19T10:27:22.602Z,16.53
2018-04-19T10:29:25.201Z,19.70
2018-04-19T10:31:27.792Z,18.23
2018-04-19T10:33:30.386Z,16.07
2018-04-19T10:35:33.119Z,19.30
2018-04-19T10:37:35.703Z,19.20
2018-04-19T10:39:38.305Z,18.60
2018-04-19T10:41:40.922Z,18.67
2018-04-19T10:43:44.329Z,22.60
2018-04-19T10:45:47.002Z,23.10
2018-04-19T10:47:49.592Z,22.20
2018-04-19T10:49:52.215Z,24.13
2018-04-19T10:51:54.848Z,26.20
2018-04-19T10:53:57.475Z,19.00
2018-04-19T10:56:00.849Z,19.17
2018-04-19T10:58:03.535Z,19.20
2018-04-19T11:00:06.989Z,21.97
2018-04-19T11:02:09.597Z,22.60
2018-04-19T11:04:12.200Z,20.07
2018-04-19T11:06:15.560Z,23.30
2018-04-19T11:08:18.161Z,19.53
2018-04-19T11:10:21.558Z,20.67
2018-04-19T11:12:24.908Z,19.30
2018-04-19T11:14:27.519Z,19.13
2018-04-19T11:16:30.889Z,19.27
2018-04-19T11:18:33.496Z,21.10
2018-04-19T11:20:36.872Z,25.17
2018-04-19T11:22:39.500Z,22.87
2018-04-19T11:24:42.134Z,20.60
2018-04-19T11:26:45.486Z,22.37
2018-04-19T11:28:48.829Z,21.70
2018-04-19T11:30:51.551Z,21.97
2018-04-19T11:32:54.142Z,21.70
2018-04-19T11:34:56.772Z,21.37
2018-04-19T11:36:59.369Z,22.70
2018-04-19T11:39:01.992Z,20.73
2018-04-19T11:41:05.363Z,19.70
2018-04-19T11:43:07.961Z,18.77
2018-04-19T11:45:11.357Z,18.33
2018-04-19T11:47:14.717Z,22.23
2018-04-19T11:49:18.118Z,16.23
2018-04-19T11:51:20.746Z,20.43
2018-04-19T11:53:23.356Z,22.53
2018-04-19T11:55:25.979Z,17.43
2018-04-19T11:57:29.420Z,21.53
2018-04-19T11:59:32.074Z,19.97
2018-04-19T12:01:34.667Z,17.60
2018-04-19T12:03:37.256Z,20.27
2018-04-19T12:05:39.872Z,19.23
2018-04-19T12:07:42.503Z,18.93
2018-04-19T12:09:45.129Z,19.10
2018-04-19T12:11:47.736Z,21.73
2018-04-19T12:13:50.341Z,24.77
2018-04-19T12:15:52.973Z,23.37
2018-04-19T12:17:55.568Z,25.13
2018-04-19T12:19:58.215Z,23.37
2018-04-19T12:22:00.861Z,21.80
2018-04-19T12:24:03.448Z,18.97
2018-04-19T12:26:06.057Z,19.67
2018-04-19T12:28:08.676Z,23.80
2018-04-19T12:30:12.072Z,19.03
2018-04-19T12:32:15.468Z,24.47
2018-04-19T12:34:18.128Z,19.70
2018-04-19T12:36:20.784Z,18.43
2018-04-19T12:38:23.377Z,22.70
2018-04-19T12:40:26.808Z,23.23
2018-04-19T12:42:29.532Z,18.00
2018-04-19T12:44:32.173Z,20.30
2018-04-19T12:46:34.809Z,22.53
2018-04-19T12:48:38.181Z,20.97
2018-04-19T12:50:40.881Z,31.17
2018-04-19T12:52:44.238Z,20.50
2018-04-19T12:54:47.659Z,20.60
2018-04-19T12:56:50.303Z,19.77
2018-04-19T12:58:52.922Z,19.17
2018-04-19T13:00:55.601Z,19.53
2018-04-19T13:02:58.223Z,19.00
2018-04-19T13:05:00.825Z,17.27
2018-04-19T13:07:03.431Z,18.43
2018-04-19T13:09:06.023Z,22.03
2018-04-19T13:11:08.654Z,17.23
2018-04-19T13:13:12.017Z,21.43
2018-04-19T13:15:14.608Z,20.60
2018-04-19T13:17:17.260Z,18.17
2018-04-19T13:19:19.850Z,19.93
2018-04-19T13:21:22.474Z,16.20
2018-04-19T13:23:25.076Z,23.87
2018-04-19T13:25:27.678Z,20.37
2018-04-19T13:27:30.356Z,20.43
2018-04-19T13:29:32.944Z,20.03
2018-04-19T13:31:36.331Z,20.80
2018-04-19T13:33:39.692Z,17.80
2018-04-19T13:35:42.284Z,17.73
2018-04-19T13:37:44.900Z,17.27
2018-04-19T13:39:47.527Z,19.73
2018-04-19T13:41:50.981Z,17.50
2018-04-19T13:43:53.584Z,16.13
2018-04-19T13:45:56.305Z,14.87
2018-04-19T13:47:58.928Z,19.27
2018-04-19T13:50:01.516Z,18.90
2018-04-19T13:52:04.167Z,15.73
2018-04-19T13:54:06.899Z,16.93
2018-04-19T13:56:10.251Z,22.30
2018-04-19T13:58:12.864Z,15.60
2018-04-19T14:00:16.224Z,17.23
2018-04-19T14:02:18.869Z,18.83
2018-04-19T14:04:21.469Z,14.70
2018-04-19T14:06:24.141Z,21.67
2018-04-19T14:08:26.745Z,19.13
2018-04-19T14:10:29.341Z,15.67
2018-04-19T14:12:32.788Z,20.67
2018-04-19T14:14:35.404Z,13.83
2018-04-19T14:16:38.755Z,20.37
2018-04-19T14:18:41.429Z,9.47
2018-04-19T14:20:44.036Z,12.37
2018-04-19T14:22:47.493Z,12.17
2018-04-19T14:24:50.855Z,14.03
2018-04-19T14:26:53.440Z,14.57
2018-04-19T14:28:56.897Z,12.00
2018-04-19T14:31:00.285Z,14.67
2018-04-19T14:33:02.916Z,14.60
2018-04-19T14:35:05.565Z,15.43
2018-04-19T14:37:08.160Z,14.30
2018-04-19T14:39:10.835Z,14.03
2018-04-19T14:41:13.432Z,14.13
2018-04-19T14:43:16.053Z,13.83
2018-04-19T14:45:19.408Z,10.67
2018-04-19T14:47:22.243Z,14.33
2018-04-19T14:49:24.896Z,16.07
2018-04-19T14:51:28.250Z,11.37
2018-04-19T14:53:30.855Z,15.03
2018-04-19T14:55:34.237Z,14.27
2018-04-19T14:57:36.811Z,13.87
2018-04-19T14:59:39.436Z,13.50
2018-04-19T15:01:42.025Z,13.90
2018-04-19T15:03:44.652Z,21.00
2018-04-19T15:05:47.241Z,17.10
2018-04-19T15:07:49.934Z,12.90
2018-04-19T15:09:52.588Z,13.33
2018-04-19T15:11:55.176Z,11.07
2018-04-19T15:13:57.780Z,13.73
2018-04-19T15:16:00.381Z,16.93
2018-04-19T15:18:02.982Z,14.50
2018-04-19T15:20:05.568Z,12.70
2018-04-19T15:22:08.201Z,12.07
2018-04-19T15:24:10.821Z,10.47
2018-04-19T15:26:13.417Z,14.00
2018-04-19T15:28:16.042Z,16.07
2018-04-19T15:30:18.668Z,12.93
2018-04-19T15:32:21.272Z,12.97
2018-04-19T15:34:23.906Z,16.07
2018-04-19T15:36:26.488Z,13.33
2018-04-19T15:38:29.151Z,15.68
2018-04-19T15:40:31.723Z,12.43
2018-04-19T15:42:34.322Z,17.17
2018-04-19T15:44:36.956Z,14.13
2018-04-19T15:46:39.560Z,27.90
2018-04-19T15:48:42.190Z,13.77
2018-04-19T15:50:45.548Z,15.77
2018-04-19T15:52:48.525Z,13.90
2018-04-19T15:54:51.259Z,12.87
2018-04-19T15:56:53.860Z,12.30
2018-04-19T15:58:56.507Z,13.20
2018-04-19T16:00:59.121Z,19.67
2018-04-19T16:03:03.585Z,16.27
2018-04-19T16:05:06.964Z,16.17
2018-04-19T16:07:10.092Z,10.97
2018-04-19T16:09:12.764Z,18.03
2018-04-19T16:11:15.435Z,11.53
2018-04-19T16:13:18.101Z,13.47
2018-04-19T16:15:20.764Z,13.03
2018-04-19T16:17:24.172Z,11.63
2018-04-19T16:19:27.164Z,12.83
2018-04-19T16:21:29.780Z,15.03
2018-04-19T16:23:32.369Z,11.03
2018-04-19T16:25:34.984Z,15.77
2018-04-19T16:27:38.450Z,21.57
2018-04-19T16:29:41.856Z,11.03
2018-04-19T16:31:44.448Z,16.30
2018-04-19T16:33:47.051Z,16.10
2018-04-19T16:35:49.718Z,14.70
2018-04-19T16:37:52.304Z,12.87
2018-04-19T16:39:54.923Z,8.87
2018-04-19T16:41:58.496Z,10.27
2018-04-19T16:44:01.064Z,13.37
2018-04-19T16:46:03.677Z,10.67
2018-04-19T16:48:06.275Z,9.50
2018-04-19T16:50:08.903Z,15.50
2018-04-19T16:52:11.498Z,14.43
2018-04-19T16:54:14.238Z,12.87
2018-04-19T16:56:16.854Z,15.03
2018-04-19T16:58:19.438Z,9.03
2018-04-19T17:00:22.059Z,10.33
2018-04-19T17:02:24.735Z,9.20
2018-04-19T17:04:27.354Z,13.10
2018-04-19T17:06:29.969Z,9.87
2018-04-19T17:08:32.550Z,6.90
2018-04-19T17:10:35.163Z,14.80
2018-04-19T17:12:38.511Z,6.67
2018-04-19T17:14:41.119Z,9.03
2018-04-19T17:16:44.516Z,9.20
2018-04-19T17:18:47.866Z,9.87
2018-04-19T17:20:50.485Z,7.13
2018-04-19T17:22:53.836Z,8.10
2018-04-19T17:24:57.248Z,8.63
2018-04-19T17:26:59.850Z,10.07
2018-04-19T17:29:03.217Z,12.20
2018-04-19T17:31:06.724Z,10.47
2018-04-19T17:33:09.315Z,10.57
2018-04-19T17:35:12.695Z,8.03
2018-04-19T17:37:16.048Z,9.40
2018-04-19T17:39:18.685Z,9.80
2018-04-19T17:41:21.295Z,7.80
2018-04-19T17:43:23.905Z,9.67
2018-04-19T17:45:26.513Z,9.70
2018-04-19T17:47:29.175Z,15.27
2018-04-19T17:49:31.779Z,9.50
2018-04-19T17:51:34.432Z,16.67
2018-04-19T17:53:37.053Z,17.63
2018-04-19T17:55:39.663Z,9.23
2018-04-19T17:57:43.047Z,15.20
2018-04-19T17:59:46.433Z,13.17
2018-04-19T18:01:49.080Z,19.97
2018-04-19T18:03:51.672Z,10.43
2018-04-19T18:05:54.305Z,9.97
2018-04-19T18:07:56.924Z,13.97
2018-04-19T18:09:59.540Z,13.17
2018-04-19T18:12:02.174Z,10.83
2018-04-19T18:14:04.779Z,10.37
2018-04-19T18:16:08.173Z,11.60
2018-04-19T18:18:12.288Z,13.07
2018-04-19T18:20:15.516Z,12.63
2018-04-19T18:22:18.131Z,24.50
2018-04-19T18:24:20.731Z,10.47
2018-04-19T18:26:23.357Z,10.43
2018-04-19T18:28:26.063Z,11.47
2018-04-19T18:30:29.420Z,11.30
2018-04-19T18:32:32.035Z,8.87
2018-04-19T18:34:34.632Z,14.30
2018-04-19T18:36:37.258Z,9.63
2018-04-19T18:38:39.847Z,7.43
2018-04-19T18:40:43.263Z,13.60
2018-04-19T18:42:45.920Z,10.67
2018-04-19T18:44:49.277Z,10.63
2018-04-19T18:46:51.929Z,12.67
2018-04-19T18:48:54.559Z,11.50
2018-04-19T18:50:57.973Z,10.57
2018-04-19T18:53:00.552Z,11.27
2018-04-19T18:55:03.276Z,10.43
2018-04-19T18:57:06.625Z,17.90
2018-04-19T18:59:09.239Z,16.37
2018-04-19T19:01:11.909Z,15.83
2018-04-19T19:03:14.540Z,12.67
2018-04-19T19:05:17.565Z,19.80
2018-04-19T19:07:20.208Z,12.87
2018-04-19T19:09:22.856Z,20.77
2018-04-19T19:11:26.935Z,12.20
2018-04-19T19:13:29.557Z,16.53
2018-04-19T19:18:32.086Z,9.47
2018-04-19T19:20:34.696Z,8.23
2018-04-19T19:22:37.305Z,11.47
2018-04-19T19:24:39.913Z,15.47
2018-04-19T19:26:42.532Z,53.67
2018-04-19T19:28:45.933Z,47.40
2018-04-19T19:30:49.330Z,59.33
2018-04-19T19:32:52.739Z,54.87
2018-04-19T19:34:55.329Z,48.17
2018-04-19T19:36:57.990Z,37.93
2018-04-19T19:39:01.269Z,34.57
2018-04-19T19:41:03.877Z,25.83
2018-04-19T19:43:06.633Z,27.63
2018-04-19T19:45:09.247Z,26.00
2018-04-19T19:47:11.892Z,20.33
2018-04-19T19:49:14.525Z,20.93
2018-04-19T19:51:17.913Z,16.60
2018-04-19T19:53:21.297Z,21.23
2018-04-19T19:55:23.994Z,21.23
2018-04-19T19:57:26.564Z,20.57
2018-04-19T19:59:30.009Z,20.43
2018-04-19T20:01:32.609Z,18.10
2018-04-19T20:03:35.240Z,16.83
2018-04-19T20:05:37.849Z,16.80
2018-04-19T20:07:40.476Z,22.57
2018-04-19T20:09:43.071Z,19.47
2018-04-19T20:11:45.684Z,18.93
2018-04-19T20:13:49.092Z,18.57
2018-04-19T20:15:52.501Z,13.03
2018-04-19T20:17:55.146Z,12.57
2018-04-19T20:19:57.731Z,13.87
2018-04-19T20:22:00.323Z,15.27
2018-04-19T20:24:03.717Z,15.77
2018-04-19T20:26:07.117Z,13.40
2018-04-19T20:28:09.771Z,12.63
2018-04-19T20:30:12.383Z,13.83
2018-04-19T20:32:15.004Z,11.53
2018-04-19T20:34:17.818Z,15.23
2018-04-19T20:36:21.289Z,12.57
2018-04-19T20:38:23.904Z,12.93
2018-04-19T20:40:26.512Z,13.67
2018-04-19T20:42:29.139Z,12.10
2018-04-19T20:44:31.765Z,8.70
2018-04-19T20:46:35.173Z,8.63
2018-04-19T20:48:38.031Z,9.00
2018-04-19T20:50:41.927Z,12.17
2018-04-19T20:52:44.541Z,8.63
2018-04-19T20:54:47.172Z,11.30
2018-04-19T20:56:49.762Z,12.60
2018-04-19T20:58:52.388Z,16.67
2018-04-19T21:00:54.995Z,14.93
2018-04-19T21:02:57.624Z,11.57
2018-04-19T21:05:01.006Z,9.40
2018-04-19T21:07:03.623Z,12.70
2018-04-19T21:09:06.232Z,13.87
2018-04-19T21:11:09.113Z,11.77
2018-04-19T21:13:11.748Z,15.03
2018-04-19T21:15:14.366Z,9.40
2018-04-19T21:17:16.972Z,11.10
2018-04-19T21:19:20.340Z,10.57
2018-04-19T21:21:22.988Z,7.87
2018-04-19T21:23:25.607Z,9.37
2018-04-19T21:25:28.980Z,12.40
2018-04-19T21:27:31.696Z,14.63
2018-04-19T21:29:34.307Z,10.40
2018-04-19T21:31:36.933Z,16.83
2018-04-19T21:33:40.330Z,13.90
2018-04-19T21:35:43.733Z,8.43
2018-04-19T21:37:46.390Z,7.67
2018-04-19T21:39:49.760Z,8.97
2018-04-19T21:41:52.380Z,9.97
2018-04-19T21:43:55.112Z,10.00
2018-04-19T21:45:57.710Z,11.10
2018-04-19T21:48:01.116Z,13.10
2018-04-19T21:50:03.832Z,15.77
2018-04-19T21:52:06.428Z,14.73
2018-04-19T21:54:09.039Z,12.40
2018-04-19T21:56:11.628Z,14.47
2018-04-19T22:00:23.212Z,18.47
2018-04-19T22:02:25.813Z,14.03
2018-04-19T22:04:28.448Z,13.30
2018-04-19T22:06:31.854Z,10.70
2018-04-19T22:08:34.466Z,11.07
2018-04-19T22:10:37.083Z,10.07
2018-04-19T22:12:40.501Z,10.17
2018-04-19T22:14:43.136Z,14.07
2018-04-19T22:16:45.733Z,14.83
2018-04-19T22:18:48.349Z,10.50
2018-04-19T22:20:51.050Z,13.97
2018-04-19T22:22:53.748Z,12.13
2018-04-19T22:24:56.355Z,17.47
2018-04-19T22:26:58.951Z,11.93
2018-04-19T22:29:01.575Z,11.20
2018-04-19T22:31:04.175Z,11.87
2018-04-19T22:33:06.779Z,8.30
2018-04-19T22:35:09.389Z,9.00
2018-04-19T22:37:12.066Z,9.07
2018-04-19T22:39:14.691Z,12.27
2018-04-19T22:41:17.299Z,11.07
2018-04-19T22:43:19.916Z,12.73
2018-04-19T22:45:22.570Z,12.03
2018-04-19T22:47:25.177Z,14.87
2018-04-19T22:49:27.801Z,11.70
2018-04-19T22:51:30.388Z,9.10
2018-04-19T22:53:32.982Z,13.90
2018-04-19T22:55:35.597Z,14.50
2018-04-19T22:57:38.195Z,9.37
2018-04-19T22:59:40.914Z,9.87
2018-04-19T23:01:43.507Z,8.10
2018-04-19T23:03:46.095Z,9.53
2018-04-19T23:05:48.742Z,8.33
2018-04-19T23:07:51.348Z,10.80
2018-04-19T23:09:53.960Z,9.70
2018-04-19T23:11:56.544Z,11.67
2018-04-19T23:13:59.144Z,10.90
2018-04-19T23:16:01.777Z,7.33
2018-04-19T23:18:04.396Z,8.67
2018-04-19T23:20:07.903Z,8.67
2018-04-19T23:22:11.399Z,7.77
2018-04-19T23:24:13.992Z,8.47
2018-04-19T23:26:17.334Z,8.80
2018-04-19T23:28:20.706Z,9.33
2018-04-19T23:30:23.429Z,9.67
2018-04-19T23:32:26.016Z,8.87
2018-04-19T23:34:28.610Z,11.10
2018-04-19T23:36:31.220Z,11.13
2018-04-19T23:38:34.578Z,10.73
2018-04-19T23:40:37.217Z,13.00
2018-04-19T23:42:39.799Z,8.40
2018-04-19T23:44:42.387Z,8.33
2018-04-19T23:46:44.993Z,8.53
2018-04-19T23:48:47.594Z,9.13
2018-04-19T23:50:50.206Z,6.30
2018-04-19T23:52:52.824Z,7.77
2018-04-19T23:54:56.376Z,11.80
2018-04-19T23:56:58.980Z,9.03
2018-04-19T23:59:01.581Z,10.17
